sensor_id;sensor_type;location;lat;lon;timestamp;pressure;altitude;pressure_sealevel;temperature;humidity
11888;BME280;6003;42.756;23.130;2023-04-10T00:00:48;153660.84;;;4.86;100.00
11888;BME280;6003;42.756;23.130;2023-04-10T00:03:22;153673.97;;;4.91;100.00
11888;BME280;6003;42.756;23.130;2023-04-10T00:05:48;153667.41;;;4.89;100.00
11888;BME280;6003;42.756;23.130;2023-04-10T00:08:15;153664.78;;;4.88;100.00
11888;BME280;6003;42.756;23.130;2023-04-10T00:10:42;153652.91;;;4.83;100.00
11888;BME280;6003;42.756;23.130;2023-04-10T00:13:09;153647.69;;;4.81;100.00
11888;BME280;6003;42.756;23.130;2023-04-10T00:15:37;153651.63;;;4.83;100.00
11888;BME280;6003;42.756;23.130;2023-04-10T00:18:04;153647.69;;;4.81;100.00
11888;BME280;6003;42.756;23.130;2023-04-10T00:20:31;153655.59;;;4.84;100.00
11888;BME280;6003;42.756;23.130;2023-04-10T00:22:57;153658.19;;;4.85;100.00
11888;BME280;6003;42.756;23.130;2023-04-10T00:25:24;153660.84;;;4.86;100.00
11888;BME280;6003;42.756;23.130;2023-04-10T00:27:52;153660.84;;;4.86;100.00
11888;BME280;6003;42.756;23.130;2023-04-10T00:30:19;153670.06;;;4.90;100.00
11888;BME280;6003;42.756;23.130;2023-04-10T00:32:47;153687.16;;;4.96;100.00
11888;BME280;6003;42.756;23.130;2023-04-10T00:35:14;153689.75;;;4.97;100.00
11888;BME280;6003;42.756;23.130;2023-04-10T00:37:41;153693.72;;;4.99;100.00
11888;BME280;6003;42.756;23.130;2023-04-10T00:40:08;153696.34;;;5.00;100.00
11888;BME280;6003;42.756;23.130;2023-04-10T00:42:35;153717.41;;;5.08;100.00
11888;BME280;6003;42.756;23.130;2023-04-10T00:45:03;153713.47;;;5.07;100.00
11888;BME280;6003;42.756;23.130;2023-04-10T00:47:30;153710.81;;;5.06;100.00
11888;BME280;6003;42.756;23.130;2023-04-10T00:49:58;153729.28;;;5.13;100.00
11888;BME280;6003;42.756;23.130;2023-04-10T00:52:25;153727.97;;;5.12;100.00
11888;BME280;6003;42.756;23.130;2023-04-10T00:54:52;153737.16;;;5.16;100.00
11888;BME280;6003;42.756;23.130;2023-04-10T00:57:19;153713.47;;;5.07;100.00
11888;BME280;6003;42.756;23.130;2023-04-10T00:59:46;153724.00;;;5.11;100.00
11888;BME280;6003;42.756;23.130;2023-04-10T01:02:15;153724.00;;;5.11;100.00
11888;BME280;6003;42.756;23.130;2023-04-10T01:04:42;153721.38;;;5.10;100.00
11888;BME280;6003;42.756;23.130;2023-04-10T01:07:15;153714.78;;;5.07;100.00
11888;BME280;6003;42.756;23.130;2023-04-10T01:09:46;153709.50;;;5.05;100.00
11888;BME280;6003;42.756;23.130;2023-04-10T01:12:29;153700.31;;;5.02;100.00
11888;BME280;6003;42.756;23.130;2023-04-10T01:15:06;153693.72;;;4.99;100.00
11888;BME280;6003;42.756;23.130;2023-04-10T01:17:40;153692.44;;;4.98;100.00
11888;BME280;6003;42.756;23.130;2023-04-10T01:20:12;153689.75;;;4.97;100.00
11888;BME280;6003;42.756;23.130;2023-04-10T01:23:07;153679.25;;;4.93;100.00
11888;BME280;6003;42.756;23.130;2023-04-10T01:25:43;153652.91;;;4.83;100.00
11888;BME280;6003;42.756;23.130;2023-04-10T01:28:37;153650.31;;;4.82;100.00
11888;BME280;6003;42.756;23.130;2023-04-10T01:31:08;153656.88;;;4.85;100.00
11888;BME280;6003;42.756;23.130;2023-04-10T01:33:39;153662.16;;;4.87;100.00
11888;BME280;6003;42.756;23.130;2023-04-10T01:36:11;153651.63;;;4.83;100.00
11888;BME280;6003;42.756;23.130;2023-04-10T01:38:41;153670.06;;;4.90;100.00
11888;BME280;6003;42.756;23.130;2023-04-10T01:41:09;153655.59;;;4.84;100.00
11888;BME280;6003;42.756;23.130;2023-04-10T01:43:38;153662.16;;;4.87;100.00
11888;BME280;6003;42.756;23.130;2023-04-10T01:46:06;153679.25;;;4.93;100.00
11888;BME280;6003;42.756;23.130;2023-04-10T01:48:33;153681.88;;;4.94;100.00
11888;BME280;6003;42.756;23.130;2023-04-10T01:51:02;153689.75;;;4.97;100.00
11888;BME280;6003;42.756;23.130;2023-04-10T01:53:30;153696.34;;;5.00;100.00
11888;BME280;6003;42.756;23.130;2023-04-10T01:55:58;153697.69;;;5.01;100.00
11888;BME280;6003;42.756;23.130;2023-04-10T01:58:27;153693.72;;;4.99;100.00
11888;BME280;6003;42.756;23.130;2023-04-10T02:00:55;153708.22;;;5.05;100.00
11888;BME280;6003;42.756;23.130;2023-04-10T02:03:22;153716.09;;;5.08;100.00
11888;BME280;6003;42.756;23.130;2023-04-10T02:05:56;153718.72;;;5.09;100.00
11888;BME280;6003;42.756;23.130;2023-04-10T02:08:32;153727.97;;;5.12;100.00
11888;BME280;6003;42.756;23.130;2023-04-10T02:11:05;153734.50;;;5.15;100.00
11888;BME280;6003;42.756;23.130;2023-04-10T02:13:34;153731.88;;;5.14;100.00
11888;BME280;6003;42.756;23.130;2023-04-10T02:16:06;153742.44;;;5.18;100.00
11888;BME280;6003;42.756;23.130;2023-04-10T02:18:34;153737.16;;;5.16;100.00
11888;BME280;6003;42.756;23.130;2023-04-10T02:21:02;153730.56;;;5.13;100.00
11888;BME280;6003;42.756;23.130;2023-04-10T02:23:29;153725.28;;;5.11;100.00
11888;BME280;6003;42.756;23.130;2023-04-10T02:25:56;153724.00;;;5.11;100.00
11888;BME280;6003;42.756;23.130;2023-04-10T02:28:23;153722.69;;;5.10;100.00
11888;BME280;6003;42.756;23.130;2023-04-10T02:30:50;153702.94;;;5.03;100.00
11888;BME280;6003;42.756;23.130;2023-04-10T02:33:18;153696.34;;;5.00;100.00
11888;BME280;6003;42.756;23.130;2023-04-10T02:35:45;153673.97;;;4.91;100.00
11888;BME280;6003;42.756;23.130;2023-04-10T02:38:12;153652.91;;;4.83;100.00
11888;BME280;6003;42.756;23.130;2023-04-10T02:40:39;153639.81;;;4.78;100.00
11888;BME280;6003;42.756;23.130;2023-04-10T02:43:06;153637.13;;;4.77;100.00
11888;BME280;6003;42.756;23.130;2023-04-10T02:45:33;153629.25;;;4.74;100.00
11888;BME280;6003;42.756;23.130;2023-04-10T02:48:00;153622.66;;;4.71;100.00
11888;BME280;6003;42.756;23.130;2023-04-10T02:50:28;153616.09;;;4.69;100.00
11888;BME280;6003;42.756;23.130;2023-04-10T02:52:56;153606.88;;;4.65;100.00
11888;BME280;6003;42.756;23.130;2023-04-10T02:55:23;153592.41;;;4.60;100.00
11888;BME280;6003;42.756;23.130;2023-04-10T02:57:50;153581.91;;;4.56;100.00
11888;BME280;6003;42.756;23.130;2023-04-10T03:00:17;153579.31;;;4.55;100.00
11888;BME280;6003;42.756;23.130;2023-04-10T03:02:44;153568.75;;;4.50;100.00
11888;BME280;6003;42.756;23.130;2023-04-10T03:05:11;153563.47;;;4.48;100.00
11888;BME280;6003;42.756;23.130;2023-04-10T03:07:39;153562.16;;;4.48;100.00
11888;BME280;6003;42.756;23.130;2023-04-10T03:10:07;153570.06;;;4.51;100.00
11888;BME280;6003;42.756;23.130;2023-04-10T03:12:34;153571.38;;;4.51;100.00
11888;BME280;6003;42.756;23.130;2023-04-10T03:15:01;153563.47;;;4.48;100.00
11888;BME280;6003;42.756;23.130;2023-04-10T03:17:28;153552.97;;;4.44;100.00
11888;BME280;6003;42.756;23.130;2023-04-10T03:19:55;153549.00;;;4.43;100.00
11888;BME280;6003;42.756;23.130;2023-04-10T03:22:21;153539.81;;;4.39;100.00
11888;BME280;6003;42.756;23.130;2023-04-10T03:24:50;153529.31;;;4.35;100.00
11888;BME280;6003;42.756;23.130;2023-04-10T03:27:17;153517.47;;;4.30;100.00
11888;BME280;6003;42.756;23.130;2023-04-10T03:29:43;153513.53;;;4.29;100.00
11888;BME280;6003;42.756;23.130;2023-04-10T03:32:10;153505.66;;;4.26;100.00
11888;BME280;6003;42.756;23.130;2023-04-10T03:34:37;153513.53;;;4.29;100.00
11888;BME280;6003;42.756;23.130;2023-04-10T03:37:04;153516.16;;;4.30;100.00
11888;BME280;6003;42.756;23.130;2023-04-10T03:39:31;153513.53;;;4.29;100.00
11888;BME280;6003;42.756;23.130;2023-04-10T03:41:59;153521.44;;;4.32;100.00
11888;BME280;6003;42.756;23.130;2023-04-10T03:44:26;153504.28;;;4.25;100.00
11888;BME280;6003;42.756;23.130;2023-04-10T03:46:53;153503.00;;;4.25;100.00
11888;BME280;6003;42.756;23.130;2023-04-10T03:49:19;153508.25;;;4.27;100.00
11888;BME280;6003;42.756;23.130;2023-04-10T03:51:46;153499.06;;;4.23;100.00
11888;BME280;6003;42.756;23.130;2023-04-10T03:54:13;153510.88;;;4.28;100.00
11888;BME280;6003;42.756;23.130;2023-04-10T03:56:40;153518.75;;;4.31;100.00
11888;BME280;6003;42.756;23.130;2023-04-10T03:59:08;153513.53;;;4.29;100.00
11888;BME280;6003;42.756;23.130;2023-04-10T04:01:35;153513.53;;;4.29;100.00
11888;BME280;6003;42.756;23.130;2023-04-10T04:04:02;153524.03;;;4.33;100.00
11888;BME280;6003;42.756;23.130;2023-04-10T04:06:28;153531.91;;;4.36;100.00
11888;BME280;6003;42.756;23.130;2023-04-10T04:08:56;153541.13;;;4.40;100.00
11888;BME280;6003;42.756;23.130;2023-04-10T04:11:23;153564.84;;;4.49;100.00
11888;BME280;6003;42.756;23.130;2023-04-10T04:13:50;153579.31;;;4.55;100.00
11888;BME280;6003;42.756;23.130;2023-04-10T04:16:18;153629.25;;;4.74;100.00
11888;BME280;6003;42.756;23.130;2023-04-10T04:18:45;153670.06;;;4.90;100.00
11888;BME280;6003;42.756;23.130;2023-04-10T04:21:11;153697.69;;;5.01;100.00
11888;BME280;6003;42.756;23.130;2023-04-10T04:23:38;153708.22;;;5.05;100.00
11888;BME280;6003;42.756;23.130;2023-04-10T04:26:05;153726.59;;;5.12;100.00
11888;BME280;6003;42.756;23.130;2023-04-10T04:28:32;153755.56;;;5.23;100.00
11888;BME280;6003;42.756;23.130;2023-04-10T04:31:00;153800.31;;;5.40;100.00
11888;BME280;6003;42.756;23.130;2023-04-10T04:33:28;153852.97;;;5.61;100.00
11888;BME280;6003;42.756;23.130;2023-04-10T04:35:55;153889.81;;;5.75;100.00
11888;BME280;6003;42.756;23.130;2023-04-10T04:38:22;153913.56;;;5.84;100.00
11888;BME280;6003;42.756;23.130;2023-04-10T04:40:49;153910.91;;;5.83;100.00
11888;BME280;6003;42.756;23.130;2023-04-10T04:43:16;153963.63;;;6.04;100.00
11888;BME280;6003;42.756;23.130;2023-04-10T04:45:43;154072.94;;;6.46;100.00
11888;BME280;6003;42.756;23.130;2023-04-10T04:48:09;154179.72;;;6.88;100.00
11888;BME280;6003;42.756;23.130;2023-04-10T04:50:40;154300.97;;;7.35;100.00
11888;BME280;6003;42.756;23.130;2023-04-10T04:53:07;154402.50;;;7.74;100.00
11888;BME280;6003;42.756;23.130;2023-04-10T04:55:34;154493.50;;;8.09;100.00
11888;BME280;6003;42.756;23.130;2023-04-10T04:58:01;154572.72;;;8.40;98.57
11888;BME280;6003;42.756;23.130;2023-04-10T05:00:27;154647.94;;;8.69;96.15
11888;BME280;6003;42.756;23.130;2023-04-10T05:02:54;154752.22;;;9.10;94.80
11888;BME280;6003;42.756;23.130;2023-04-10T05:05:21;154818.25;;;9.35;93.01
11888;BME280;6003;42.756;23.130;2023-04-10T05:07:49;154896.16;;;9.65;90.93
11888;BME280;6003;42.756;23.130;2023-04-10T05:10:16;154970.13;;;9.94;89.30
11888;BME280;6003;42.756;23.130;2023-04-10T05:12:43;154900.13;;;9.67;88.66
11888;BME280;6003;42.756;23.130;2023-04-10T05:15:10;154942.38;;;9.83;88.13
11888;BME280;6003;42.756;23.130;2023-04-10T05:17:37;154966.13;;;9.92;87.08
11888;BME280;6003;42.756;23.130;2023-04-10T05:20:04;154987.28;;;10.01;86.72
11888;BME280;6003;42.756;23.130;2023-04-10T05:22:32;154991.28;;;10.02;86.05
11888;BME280;6003;42.756;23.130;2023-04-10T05:25:01;155041.50;;;10.22;85.13
11888;BME280;6003;42.756;23.130;2023-04-10T05:27:28;154992.59;;;10.03;84.84
11888;BME280;6003;42.756;23.130;2023-04-10T05:29:54;154926.53;;;9.77;85.13
11888;BME280;6003;42.756;23.130;2023-04-10T05:32:21;154954.28;;;9.88;84.89
11888;BME280;6003;42.756;23.130;2023-04-10T05:34:48;154966.13;;;9.92;85.38
11888;BME280;6003;42.756;23.130;2023-04-10T05:37:15;155069.25;;;10.32;84.54
11888;BME280;6003;42.756;23.130;2023-04-10T05:39:41;155130.09;;;10.56;83.55
11888;BME280;6003;42.756;23.130;2023-04-10T05:42:10;155120.81;;;10.52;81.60
11888;BME280;6003;42.756;23.130;2023-04-10T05:44:37;155135.34;;;10.58;81.63
11888;BME280;6003;42.756;23.130;2023-04-10T05:47:04;155124.78;;;10.54;81.03
11888;BME280;6003;42.756;23.130;2023-04-10T05:49:31;155214.69;;;10.89;80.75
11888;BME280;6003;42.756;23.130;2023-04-10T05:51:58;155181.59;;;10.76;80.44
11888;BME280;6003;42.756;23.130;2023-04-10T05:54:25;155200.13;;;10.83;78.99
11888;BME280;6003;42.756;23.130;2023-04-10T05:56:52;155182.97;;;10.76;81.08
11888;BME280;6003;42.756;23.130;2023-04-10T05:59:20;155127.41;;;10.55;81.24
11888;BME280;6003;42.756;23.130;2023-04-10T06:01:50;155098.34;;;10.44;80.03
11888;BME280;6003;42.756;23.130;2023-04-10T06:04:17;155071.94;;;10.33;81.79
11888;BME280;6003;42.756;23.130;2023-04-10T06:06:45;155101.00;;;10.45;82.36
11888;BME280;6003;42.756;23.130;2023-04-10T06:09:12;155081.16;;;10.37;81.71
11888;BME280;6003;42.756;23.130;2023-04-10T06:11:39;155098.34;;;10.44;82.24
11888;BME280;6003;42.756;23.130;2023-04-10T06:14:06;155148.56;;;10.63;81.40
11888;BME280;6003;42.756;23.130;2023-04-10T06:16:34;155241.09;;;10.99;82.05
11888;BME280;6003;42.756;23.130;2023-04-10T06:19:00;155235.84;;;10.97;80.74
11888;BME280;6003;42.756;23.130;2023-04-10T06:21:27;155262.25;;;11.07;81.53
11888;BME280;6003;42.756;23.130;2023-04-10T06:23:54;155214.69;;;10.89;82.36
11888;BME280;6003;42.756;23.130;2023-04-10T06:26:21;155241.09;;;10.99;82.50
11888;BME280;6003;42.756;23.130;2023-04-10T06:28:48;155176.34;;;10.74;79.91
11888;BME280;6003;42.756;23.130;2023-04-10T06:31:17;155182.97;;;10.76;81.88
11888;BME280;6003;42.756;23.130;2023-04-10T06:33:47;155225.25;;;10.93;83.78
11888;BME280;6003;42.756;23.130;2023-04-10T06:36:14;155033.56;;;10.19;82.68
11888;BME280;6003;42.756;23.130;2023-04-10T06:38:41;154992.59;;;10.03;83.13
11888;BME280;6003;42.756;23.130;2023-04-10T06:41:08;154947.66;;;9.85;84.22
11888;BME280;6003;42.756;23.130;2023-04-10T06:43:37;154921.22;;;9.75;85.44
11888;BME280;6003;42.756;23.130;2023-04-10T06:46:05;154952.97;;;9.87;86.41
11888;BME280;6003;42.756;23.130;2023-04-10T06:48:32;154939.75;;;9.82;85.08
11888;BME280;6003;42.756;23.130;2023-04-10T06:51:00;154897.47;;;9.66;85.04
11888;BME280;6003;42.756;23.130;2023-04-10T06:53:28;154851.25;;;9.48;86.65
11888;BME280;6003;42.756;23.130;2023-04-10T06:55:55;154810.34;;;9.32;86.59
11888;BME280;6003;42.756;23.130;2023-04-10T06:58:22;154819.56;;;9.36;87.71
11888;BME280;6003;42.756;23.130;2023-04-10T07:00:50;154855.22;;;9.49;88.89
11888;BME280;6003;42.756;23.130;2023-04-10T07:03:16;154834.09;;;9.41;85.67
11888;BME280;6003;42.756;23.130;2023-04-10T07:05:43;154799.75;;;9.28;86.75
11888;BME280;6003;42.756;23.130;2023-04-10T07:08:12;154795.81;;;9.26;87.71
11888;BME280;6003;42.756;23.130;2023-04-10T07:10:38;154703.38;;;8.91;83.88
11888;BME280;6003;42.756;23.130;2023-04-10T07:13:05;154651.88;;;8.71;85.86
11888;BME280;6003;42.756;23.130;2023-04-10T07:15:32;154597.78;;;8.50;84.94
11888;BME280;6003;42.756;23.130;2023-04-10T07:17:59;154580.66;;;8.43;86.33
11888;BME280;6003;42.756;23.130;2023-04-10T07:20:25;154607.00;;;8.53;87.57
11888;BME280;6003;42.756;23.130;2023-04-10T07:22:52;154617.59;;;8.57;88.52
11888;BME280;6003;42.756;23.130;2023-04-10T07:25:20;154634.75;;;8.64;87.17
11888;BME280;6003;42.756;23.130;2023-04-10T07:27:47;154641.34;;;8.67;88.08
11888;BME280;6003;42.756;23.130;2023-04-10T07:30:14;154659.78;;;8.74;88.11
11888;BME280;6003;42.756;23.130;2023-04-10T07:32:41;154673.00;;;8.79;89.49
11888;BME280;6003;42.756;23.130;2023-04-10T09:39:51;154715.25;;;8.95;78.85
11888;BME280;6003;42.756;23.130;2023-04-10T09:42:29;154678.31;;;8.81;81.52
11888;BME280;6003;42.756;23.130;2023-04-10T09:44:57;154686.22;;;8.84;82.79
11888;BME280;6003;42.756;23.130;2023-04-10T09:47:24;154736.38;;;9.03;81.47
11888;BME280;6003;42.756;23.130;2023-04-10T09:49:52;154805.03;;;9.30;81.32
11888;BME280;6003;42.756;23.130;2023-04-10T09:52:21;154952.97;;;9.87;81.99
11888;BME280;6003;42.756;23.130;2023-04-10T09:54:51;155093.09;;;10.42;80.08
11888;BME280;6003;42.756;23.130;2023-04-10T09:57:20;155037.50;;;10.20;76.50
11888;BME280;6003;42.756;23.130;2023-04-10T09:59:48;154985.97;;;10.00;77.52
11888;BME280;6003;42.756;23.130;2023-04-10T10:02:17;154974.13;;;9.96;79.64
11888;BME280;6003;42.756;23.130;2023-04-10T10:04:45;154989.97;;;10.02;79.99
11888;BME280;6003;42.756;23.130;2023-04-10T10:07:14;155053.34;;;10.26;82.32
11888;BME280;6003;42.756;23.130;2023-04-10T10:09:41;154968.81;;;9.93;81.26
11888;BME280;6003;42.756;23.130;2023-04-10T10:12:20;154892.22;;;9.64;80.27
11888;BME280;6003;42.756;23.130;2023-04-10T10:14:53;154898.78;;;9.66;83.11
11888;BME280;6003;42.756;23.130;2023-04-10T10:17:25;154868.41;;;9.55;82.25
11888;BME280;6003;42.756;23.130;2023-04-10T10:20:00;154875.00;;;9.57;83.75
11888;BME280;6003;42.756;23.130;2023-04-10T10:22:28;154871.06;;;9.56;80.77
11888;BME280;6003;42.756;23.130;2023-04-10T10:24:55;154896.16;;;9.65;80.28
11888;BME280;6003;42.756;23.130;2023-04-10T10:27:27;154915.97;;;9.73;78.93
11888;BME280;6003;42.756;23.130;2023-04-10T10:29:58;154950.28;;;9.86;78.32
11888;BME280;6003;42.756;23.130;2023-04-10T10:32:26;155064.00;;;10.30;79.06
11888;BME280;6003;42.756;23.130;2023-04-10T10:34:54;155176.34;;;10.74;75.87
11888;BME280;6003;42.756;23.130;2023-04-10T10:37:22;155246.41;;;11.01;73.58
11888;BME280;6003;42.756;23.130;2023-04-10T10:39:56;155274.19;;;11.12;73.27
11888;BME280;6003;42.756;23.130;2023-04-10T10:42:32;155294.03;;;11.19;72.31
11888;BME280;6003;42.756;23.130;2023-04-10T10:45:06;155288.72;;;11.17;71.62
11888;BME280;6003;42.756;23.130;2023-04-10T10:47:39;155193.53;;;10.80;71.64
11888;BME280;6003;42.756;23.130;2023-04-10T10:50:07;155175.03;;;10.73;72.02
11888;BME280;6003;42.756;23.130;2023-04-10T10:52:41;155124.78;;;10.54;73.50
11888;BME280;6003;42.756;23.130;2023-04-10T10:55:31;155115.56;;;10.50;77.06
11888;BME280;6003;42.756;23.130;2023-04-10T10:58:04;155126.09;;;10.54;74.69
11888;BME280;6003;42.756;23.130;2023-04-10T11:03:34;155200.13;;;10.83;74.93
11888;BME280;6003;42.756;23.130;2023-04-10T11:06:03;155178.97;;;10.75;72.44
11888;BME280;6003;42.756;23.130;2023-04-10T11:08:49;155182.97;;;10.76;73.08
11888;BME280;6003;42.756;23.130;2023-04-10T11:11:19;155167.06;;;10.70;73.85
11888;BME280;6003;42.756;23.130;2023-04-10T11:14:13;155173.69;;;10.73;72.91
11888;BME280;6003;42.756;23.130;2023-04-10T11:16:47;155182.97;;;10.76;71.48
11888;BME280;6003;42.756;23.130;2023-04-10T11:19:14;155238.47;;;10.98;71.57
11888;BME280;6003;42.756;23.130;2023-04-10T11:22:03;155299.28;;;11.21;69.87
11888;BME280;6003;42.756;23.130;2023-04-10T11:24:51;155267.56;;;11.09;70.83
11888;BME280;6003;42.756;23.130;2023-04-10T11:27:37;155353.56;;;11.42;71.32
11888;BME280;6003;42.756;23.130;2023-04-10T11:32:59;155369.41;;;11.48;76.56
11888;BME280;6003;42.756;23.130;2023-04-10T11:35:26;155390.59;;;11.57;75.86
11888;BME280;6003;42.756;23.130;2023-04-10T11:38:11;155381.28;;;11.53;74.92
11888;BME280;6003;42.756;23.130;2023-04-10T11:41:01;155415.69;;;11.66;73.70
11888;BME280;6003;42.756;23.130;2023-04-10T11:43:29;155463.31;;;11.85;71.38
11888;BME280;6003;42.756;23.130;2023-04-10T11:46:00;155497.78;;;11.98;70.29
11888;BME280;6003;42.756;23.130;2023-04-10T11:48:29;155462.00;;;11.84;71.31
11888;BME280;6003;42.756;23.130;2023-04-10T11:50:56;155434.19;;;11.73;68.72
11888;BME280;6003;42.756;23.130;2023-04-10T11:53:24;155383.97;;;11.54;69.43
11888;BME280;6003;42.756;23.130;2023-04-10T11:55:51;155398.53;;;11.60;68.98
11888;BME280;6003;42.756;23.130;2023-04-10T11:58:25;155436.88;;;11.74;69.08
11888;BME280;6003;42.756;23.130;2023-04-10T12:00:59;155397.16;;;11.59;66.73
11888;BME280;6003;42.756;23.130;2023-04-10T12:03:39;155448.75;;;11.79;69.52
11888;BME280;6003;42.756;23.130;2023-04-10T12:06:07;155459.38;;;11.83;69.48
11888;BME280;6003;42.756;23.130;2023-04-10T12:08:37;155500.41;;;11.99;70.86
11888;BME280;6003;42.756;23.130;2023-04-10T12:11:04;155521.59;;;12.07;68.17
11888;BME280;6003;42.756;23.130;2023-04-10T12:13:31;155537.47;;;12.13;68.34
11888;BME280;6003;42.756;23.130;2023-04-10T12:16:00;155534.84;;;12.12;69.64
11888;BME280;6003;42.756;23.130;2023-04-10T12:18:27;155540.16;;;12.14;66.57
11888;BME280;6003;42.756;23.130;2023-04-10T12:20:57;155508.34;;;12.02;67.24
11888;BME280;6003;42.756;23.130;2023-04-10T12:23:24;155426.25;;;11.70;68.00
11888;BME280;6003;42.756;23.130;2023-04-10T12:25:53;155340.31;;;11.37;69.82
11888;BME280;6003;42.756;23.130;2023-04-10T12:28:20;155307.22;;;11.24;72.36
11888;BME280;6003;42.756;23.130;2023-04-10T12:30:48;155178.97;;;10.75;72.19
11888;BME280;6003;42.756;23.130;2023-04-10T12:33:20;155095.72;;;10.43;73.73
11888;BME280;6003;42.756;23.130;2023-04-10T12:35:47;155032.22;;;10.18;75.30
11888;BME280;6003;42.756;23.130;2023-04-10T12:38:33;155048.09;;;10.24;74.90
11888;BME280;6003;42.756;23.130;2023-04-10T12:41:00;155086.47;;;10.39;74.43
11888;BME280;6003;42.756;23.130;2023-04-10T12:43:32;155042.81;;;10.22;71.08
11888;BME280;6003;42.756;23.130;2023-04-10T12:45:59;155081.16;;;10.37;72.82
11888;BME280;6003;42.756;23.130;2023-04-10T12:48:26;155085.13;;;10.38;71.99
11888;BME280;6003;42.756;23.130;2023-04-10T12:50:52;155134.03;;;10.57;73.85
11888;BME280;6003;42.756;23.130;2023-04-10T12:53:21;155083.81;;;10.38;72.93
11888;BME280;6003;42.756;23.130;2023-04-10T12:55:58;154894.84;;;9.65;79.57
11888;BME280;6003;42.756;23.130;2023-04-10T12:58:26;154708.66;;;8.93;82.77
11888;BME280;6003;42.756;23.130;2023-04-10T13:00:57;154654.56;;;8.72;84.75
11888;BME280;6003;42.756;23.130;2023-04-10T13:03:25;154605.69;;;8.53;85.63
11888;BME280;6003;42.756;23.130;2023-04-10T13:05:52;154562.09;;;8.36;86.81
11888;BME280;6003;42.756;23.130;2023-04-10T13:08:21;154577.97;;;8.42;87.05
11888;BME280;6003;42.756;23.130;2023-04-10T13:10:48;154633.44;;;8.64;87.45
11888;BME280;6003;42.756;23.130;2023-04-10T13:13:15;154614.94;;;8.56;88.13
11888;BME280;6003;42.756;23.130;2023-04-10T13:15:42;154612.31;;;8.55;89.61
11888;BME280;6003;42.756;23.130;2023-04-10T13:18:09;154686.22;;;8.84;90.19
11888;BME280;6003;42.756;23.130;2023-04-10T13:20:37;154713.94;;;8.95;89.80
11888;BME280;6003;42.756;23.130;2023-04-10T13:23:04;154733.72;;;9.02;90.06
11888;BME280;6003;42.756;23.130;2023-04-10T13:25:34;154794.44;;;9.26;89.14
11888;BME280;6003;42.756;23.130;2023-04-10T13:28:02;154831.41;;;9.40;89.31
11888;BME280;6003;42.756;23.130;2023-04-10T13:30:34;154830.09;;;9.40;84.91
11888;BME280;6003;42.756;23.130;2023-04-10T13:33:01;154812.94;;;9.33;83.50
11888;BME280;6003;42.756;23.130;2023-04-10T13:35:28;154879.00;;;9.59;83.25
11888;BME280;6003;42.756;23.130;2023-04-10T13:37:55;154921.22;;;9.75;82.65
11888;BME280;6003;42.756;23.130;2023-04-10T13:40:22;155000.50;;;10.06;81.92
11888;BME280;6003;42.756;23.130;2023-04-10T13:42:50;154982.03;;;9.99;78.35
11888;BME280;6003;42.756;23.130;2023-04-10T13:45:17;155005.81;;;10.08;79.73
11888;BME280;6003;42.756;23.130;2023-04-10T13:47:44;154950.28;;;9.86;79.30
11888;BME280;6003;42.756;23.130;2023-04-10T13:50:10;154982.03;;;9.99;79.17
11888;BME280;6003;42.756;23.130;2023-04-10T13:52:37;154921.22;;;9.75;77.46
11888;BME280;6003;42.756;23.130;2023-04-10T13:55:05;154913.31;;;9.72;77.90
11888;BME280;6003;42.756;23.130;2023-04-10T13:57:32;154989.97;;;10.02;78.41
11888;BME280;6003;42.756;23.130;2023-04-10T14:00:00;155046.75;;;10.24;77.27
11888;BME280;6003;42.756;23.130;2023-04-10T14:02:29;154987.28;;;10.01;75.02
11888;BME280;6003;42.756;23.130;2023-04-10T14:04:56;154997.88;;;10.05;78.45
11888;BME280;6003;42.756;23.130;2023-04-10T14:07:22;155003.13;;;10.07;77.69
11888;BME280;6003;42.756;23.130;2023-04-10T14:09:49;155046.75;;;10.24;79.14
11888;BME280;6003;42.756;23.130;2023-04-10T14:12:16;155008.44;;;10.09;79.73
11888;BME280;6003;42.756;23.130;2023-04-10T14:14:43;154999.19;;;10.05;80.59
11888;BME280;6003;42.756;23.130;2023-04-10T14:17:12;155016.34;;;10.12;81.32
11888;BME280;6003;42.756;23.130;2023-04-10T14:19:40;155001.81;;;10.06;79.88
11888;BME280;6003;42.756;23.130;2023-04-10T14:22:06;155009.75;;;10.09;76.90
11888;BME280;6003;42.756;23.130;2023-04-10T14:24:33;155012.41;;;10.10;74.75
11888;BME280;6003;42.756;23.130;2023-04-10T14:27:00;155042.81;;;10.22;74.94
11888;BME280;6003;42.756;23.130;2023-04-10T14:29:27;155070.63;;;10.33;75.14
11888;BME280;6003;42.756;23.130;2023-04-10T14:31:55;155101.00;;;10.45;74.07
11888;BME280;6003;42.756;23.130;2023-04-10T14:34:23;155097.03;;;10.43;72.52
11888;BME280;6003;42.756;23.130;2023-04-10T14:36:50;155135.34;;;10.58;74.43
11888;BME280;6003;42.756;23.130;2023-04-10T14:39:21;155091.72;;;10.41;72.04
11888;BME280;6003;42.756;23.130;2023-04-10T14:41:48;155082.47;;;10.37;74.17
11888;BME280;6003;42.756;23.130;2023-04-10T14:44:15;155070.63;;;10.33;73.60
11888;BME280;6003;42.756;23.130;2023-04-10T14:46:42;155069.25;;;10.32;74.10
11888;BME280;6003;42.756;23.130;2023-04-10T14:49:10;155079.88;;;10.36;74.21
11888;BME280;6003;42.756;23.130;2023-04-10T14:51:38;155041.50;;;10.22;74.65
11888;BME280;6003;42.756;23.130;2023-04-10T14:54:05;155001.81;;;10.06;76.22
11888;BME280;6003;42.756;23.130;2023-04-10T14:56:32;154914.66;;;9.73;76.68
11888;BME280;6003;42.756;23.130;2023-04-10T14:58:59;154839.34;;;9.43;78.64
11888;BME280;6003;42.756;23.130;2023-04-10T15:01:26;154797.13;;;9.27;78.82
11888;BME280;6003;42.756;23.130;2023-04-10T15:03:53;154753.53;;;9.10;80.42
11888;BME280;6003;42.756;23.130;2023-04-10T15:06:19;154708.66;;;8.93;80.59
11888;BME280;6003;42.756;23.130;2023-04-10T15:08:48;154641.34;;;8.67;82.51
11888;BME280;6003;42.756;23.130;2023-04-10T15:11:15;154614.94;;;8.56;87.07